Time;durP1;ratioP1;P1;durP2;ratioP2;P2;SDS_P1;SDS_P2;PMS_P1;PMS_P2;Temp;Humidity;BMP_temperature;BMP_pressure;BME280_temperature;BME280_humidity;BME280_pressure;Samples;Min_cycle;Max_cycle;Signal;HPM_P1;HPM_P2
2023/01/23 00:01:40;;;;;;;12.10;7.80;;;;;;;2.82;79.95;102767.61;107459;1254;97929;-60
2023/01/23 00:04:11;;;;;;;11.70;7.50;;;;;;;2.80;80.03;102771.23;107446;1254;97873;-58
2023/01/23 00:06:39;;;;;;;13.50;8.60;;;;;;;2.78;80.22;102776.22;107446;1257;113075;-60
2023/01/23 00:09:08;;;;;;;13.40;8.70;;;;;;;2.76;80.31;102776.09;107425;1254;109708;-58
2023/01/23 00:11:37;;;;;;;12.30;7.90;;;;;;;2.74;80.10;102777.90;107437;1257;108397;-61
2023/01/23 00:14:05;;;;;;;11.10;7.60;;;;;;;2.77;80.32;102782.27;107438;1254;97841;-59
2023/01/23 00:16:35;;;;;;;12.80;8.10;;;;;;;2.80;80.40;102781.15;107467;1254;98603;-58
2023/01/23 00:19:03;;;;;;;13.70;8.80;;;;;;;2.81;80.49;102783.95;107451;1254;111307;-60
2023/01/23 00:21:32;;;;;;;14.90;7.60;;;;;;;2.82;80.48;102784.80;107426;1253;109415;-59
2023/01/23 00:24:00;;;;;;;12.60;8.00;;;;;;;2.78;80.36;102788.45;107389;1254;108376;-60
2023/01/23 00:26:34;;;;;;;11.60;7.80;;;;;;;2.78;80.24;102789.86;107453;1254;97919;-61
2023/01/23 00:29:03;;;;;;;12.30;7.90;;;;;;;2.82;80.19;102794.02;107450;1254;97746;-63
2023/01/23 00:31:35;;;;;;;13.50;8.10;;;;;;;2.83;80.07;102792.05;107474;1257;111504;-59
2023/01/23 00:34:10;;;;;;;12.00;7.80;;;;;;;2.77;79.97;102791.30;107485;1254;109074;-59
2023/01/23 00:36:41;;;;;;;12.50;7.50;;;;;;;2.71;80.01;102791.45;107523;1254;107287;-60
2023/01/23 00:39:17;;;;;;;13.30;8.10;;;;;;;2.70;79.99;102797.67;107613;1253;97867;-59
2023/01/23 00:41:47;;;;;;;11.50;7.10;;;;;;;2.71;80.39;102797.48;107432;1253;97787;-59
2023/01/23 00:44:16;;;;;;;12.90;7.70;;;;;;;2.70;80.06;102795.20;107590;1253;110878;-59
2023/01/23 00:46:45;;;;;;;13.40;7.90;;;;;;;2.69;79.94;102795.92;107475;1253;108182;-58
2023/01/23 00:49:16;;;;;;;11.00;6.40;;;;;;;2.69;79.81;102798.05;107591;1254;108541;-59
2023/01/23 00:51:45;;;;;;;13.00;7.80;;;;;;;2.62;79.91;102807.77;107358;1254;97752;-60
2023/01/23 00:54:13;;;;;;;12.50;7.40;;;;;;;2.59;79.73;102806.25;107436;1254;97717;-58
2023/01/23 00:56:42;;;;;;;10.80;7.40;;;;;;;2.58;79.61;102811.92;107463;1254;111852;-59
2023/01/23 00:59:11;;;;;;;10.60;6.50;;;;;;;2.51;79.10;102814.20;107471;1253;109695;-60
2023/01/23 01:01:40;;;;;;;9.10;6.50;;;;;;;2.40;79.30;102817.63;107435;1254;107839;-61
2023/01/23 01:04:09;;;;;;;8.90;6.20;;;;;;;2.30;79.24;102812.34;107311;1253;97870;-59
2023/01/23 01:06:37;;;;;;;10.60;5.90;;;;;;;2.25;78.92;102815.30;107471;1254;97746;-59
2023/01/23 01:09:05;;;;;;;9.00;5.90;;;;;;;2.18;78.96;102815.61;107434;1254;112766;-60
2023/01/23 01:11:33;;;;;;;10.30;6.30;;;;;;;2.12;78.91;102815.73;107564;1253;110044;-60
2023/01/23 01:14:02;;;;;;;9.40;6.40;;;;;;;2.06;78.63;102811.25;107415;1254;108412;-60
2023/01/23 01:16:31;;;;;;;9.30;5.80;;;;;;;1.99;79.07;102809.61;107423;1252;97861;-60
2023/01/23 01:18:59;;;;;;;10.50;6.90;;;;;;;1.92;78.93;102815.59;107472;1254;97770;-63
2023/01/23 01:21:27;;;;;;;9.20;6.30;;;;;;;1.84;79.11;102814.31;107599;1254;111814;-59
2023/01/23 01:23:56;;;;;;;9.10;6.20;;;;;;;1.77;79.27;102817.81;107633;1254;109291;-60
2023/01/23 01:26:27;;;;;;;8.10;6.00;;;;;;;1.70;79.14;102817.59;107587;1254;108243;-59
2023/01/23 01:28:56;;;;;;;11.20;6.40;;;;;;;1.70;79.36;102817.95;107640;1254;97714;-60
2023/01/23 01:31:24;;;;;;;11.70;5.80;;;;;;;1.71;79.40;102819.17;107647;1254;98370;-60
2023/01/23 01:33:54;;;;;;;11.30;7.00;;;;;;;1.75;79.59;102819.98;107481;1253;112375;-58
2023/01/23 01:36:23;;;;;;;8.20;6.20;;;;;;;1.75;79.45;102817.34;107680;1254;109779;-61
2023/01/23 01:38:51;;;;;;;10.90;6.20;;;;;;;1.73;79.65;102814.89;107680;1252;108664;-59
2023/01/23 01:41:20;;;;;;;8.10;6.00;;;;;;;1.75;79.88;102815.58;107566;1254;97867;-60
2023/01/23 01:43:49;;;;;;;9.10;5.10;;;;;;;1.81;80.14;102817.58;107619;1253;97848;-60
2023/01/23 01:46:29;;;;;;;9.00;6.00;;;;;;;1.83;79.89;102822.30;107575;1254;112966;-59
2023/01/23 01:49:00;;;;;;;9.70;6.40;;;;;;;1.88;79.96;102827.70;107470;1254;110136;-58
2023/01/23 01:51:50;;;;;;;8.80;6.00;;;;;;;1.94;80.04;102831.48;107557;1253;108010;-58
2023/01/23 01:54:21;;;;;;;9.20;6.10;;;;;;;1.97;79.72;102834.08;107591;1252;97802;-60
2023/01/23 01:57:10;;;;;;;8.60;5.80;;;;;;;2.01;79.88;102835.44;107586;1256;98363;-60
2023/01/23 02:00:00;;;;;;;10.70;6.70;;;;;;;2.00;79.53;102837.73;107489;1254;113061;-60
2023/01/23 02:02:52;;;;;;;7.90;5.10;;;;;;;1.95;79.70;102838.02;107605;1256;109012;-60
2023/01/23 02:05:27;;;;;;;12.10;6.60;;;;;;;1.91;79.74;102839.86;107564;1254;108627;-59
2023/01/23 02:08:12;;;;;;;9.10;5.90;;;;;;;1.93;79.95;102842.65;107436;1253;97930;-60
2023/01/23 02:10:41;;;;;;;;;;;;;;;1.94;79.65;102846.34;107656;1253;97842;-60
2023/01/23 02:13:37;;;;;;;9.70;6.00;;;;;;;1.92;79.64;102845.69;107458;1257;111826;-61
2023/01/23 02:16:13;;;;;;;10.90;6.20;;;;;;;1.92;79.83;102846.92;107563;1254;110087;-60
2023/01/23 02:18:46;;;;;;;11.50;6.70;;;;;;;1.94;79.61;102843.87;107450;1254;107698;-59
2023/01/23 02:21:19;;;;;;;10.10;7.20;;;;;;;1.95;79.30;102845.27;107596;1256;97928;-61
2023/01/23 02:24:36;;;;;;;12.10;6.40;;;;;;;1.95;79.54;102844.38;107585;1253;97957;-59
2023/01/23 02:27:05;;;;;;;9.50;6.60;;;;;;;1.93;79.36;102851.51;107369;1254;112410;-60
2023/01/23 02:29:43;;;;;;;11.00;6.90;;;;;;;1.91;79.35;102849.59;107560;1254;109667;-61
2023/01/23 02:32:11;;;;;;;9.30;6.90;;;;;;;1.92;79.34;102849.05;107344;1254;107723;-60
2023/01/23 02:34:41;;;;;;;11.10;7.20;;;;;;;1.88;78.91;102849.11;107427;1253;97841;-59
2023/01/23 02:37:10;;;;;;;13.20;8.60;;;;;;;1.85;78.86;102854.48;107629;1255;97727;-59
2023/01/23 02:39:39;;;;;;;13.00;8.30;;;;;;;1.76;78.77;102853.58;107523;1254;110472;-59
2023/01/23 02:42:08;;;;;;;12.70;8.50;;;;;;;1.68;78.65;102853.19;107577;1254;110259;-59
2023/01/23 02:44:47;;;;;;;12.70;8.00;;;;;;;1.63;78.80;102858.41;107540;1254;109106;-60
2023/01/23 02:47:17;;;;;;;13.80;8.80;;;;;;;1.58;78.73;102862.04;107584;1253;97922;-60
2023/01/23 02:49:45;;;;;;;15.90;9.60;;;;;;;1.51;78.65;102870.64;107572;1253;97921;-59
2023/01/23 02:52:14;;;;;;;16.00;9.70;;;;;;;1.47;78.63;102872.64;107613;1252;111851;-61
2023/01/23 02:54:42;;;;;;;14.40;9.50;;;;;;;1.46;78.64;102868.06;107575;1253;110000;-59
2023/01/23 02:57:11;;;;;;;13.70;9.00;;;;;;;1.43;78.81;102867.41;107474;1254;108113;-60
2023/01/23 03:02:28;;;;;;;13.90;8.00;;;;;;;1.39;78.66;102868.70;107585;1254;98341;-60
2023/01/23 03:04:57;;;;;;;11.10;7.30;;;;;;;1.45;78.82;102872.51;107589;1254;112382;-59
2023/01/23 03:07:28;;;;;;;13.50;8.10;;;;;;;1.46;78.73;102874.09;107587;1254;110089;-60
2023/01/23 03:09:56;;;;;;;11.00;6.90;;;;;;;1.46;78.84;102879.38;107544;1256;107565;-59
2023/01/23 03:12:25;;;;;;;11.40;7.50;;;;;;;1.46;78.83;102886.63;107405;1259;98004;-59
2023/01/23 03:14:54;;;;;;;9.90;7.40;;;;;;;1.49;78.94;102887.30;107663;1253;97716;-59
2023/01/23 03:17:23;;;;;;;11.10;8.00;;;;;;;1.50;78.95;102886.92;107625;1254;111324;-62
2023/01/23 03:19:52;;;;;;;10.00;7.10;;;;;;;1.53;79.00;102885.97;107484;1252;110160;-61
2023/01/23 03:22:21;;;;;;;10.10;7.40;;;;;;;1.50;78.79;102887.09;107437;1257;108320;-59
2023/01/23 03:24:50;;;;;;;10.00;7.20;;;;;;;1.49;79.04;102885.34;107681;1253;97818;-61
2023/01/23 03:27:18;;;;;;;11.70;7.00;;;;;;;1.56;79.16;102890.89;107485;1253;98548;-60
2023/01/23 03:32:37;;;;;;;13.80;8.50;;;;;;;1.67;79.05;102892.11;107670;1252;110531;-60
2023/01/23 03:35:13;;;;;;;16.10;8.10;;;;;;;1.65;78.68;102893.58;107637;1254;108628;-61
2023/01/23 03:37:45;;;;;;;15.70;8.30;;;;;;;1.64;78.74;102886.86;107443;1253;97826;-62
2023/01/23 03:43:05;;;;;;;11.80;7.80;;;;;;;1.74;79.04;102883.50;107509;1254;111480;-61
2023/01/23 03:45:35;;;;;;;14.70;7.60;;;;;;;1.80;79.05;102887.99;107436;1254;108915;-60
2023/01/23 03:48:04;;;;;;;10.40;7.20;;;;;;;1.82;78.52;102885.85;107603;1256;108774;-61
2023/01/23 03:50:33;;;;;;;10.20;7.00;;;;;;;1.83;78.47;102884.77;107472;1254;97893;-61
2023/01/23 03:53:01;;;;;;;10.60;6.30;;;;;;;1.86;78.11;102889.31;107472;1253;97848;-59
2023/01/23 03:55:30;;;;;;;7.80;5.90;;;;;;;1.86;77.83;102887.37;107442;1254;112723;-60
2023/01/23 03:57:58;;;;;;;10.00;5.80;;;;;;;1.90;78.00;102887.83;107614;1254;110023;-61
2023/01/23 04:00:30;;;;;;;8.80;5.30;;;;;;;1.94;77.46;102888.47;107601;1253;107810;-59
2023/01/23 04:03:04;;;;;;;7.90;5.20;;;;;;;1.92;76.79;102893.11;107548;1253;97822;-60
2023/01/23 04:05:33;;;;;;;6.80;4.90;;;;;;;1.85;76.55;102895.34;107635;1254;97877;-61
2023/01/23 04:08:02;;;;;;;7.80;6.10;;;;;;;1.83;76.68;102895.92;107580;1254;112494;-61
2023/01/23 04:10:31;;;;;;;8.60;6.10;;;;;;;1.75;76.28;102894.81;107675;1253;107639;-59
2023/01/23 04:13:06;;;;;;;13.20;6.00;;;;;;;1.70;76.89;102897.89;107538;1253;107863;-59
2023/01/23 04:15:34;;;;;;;8.00;5.80;;;;;;;1.71;76.91;102901.23;107502;1254;97867;-59
2023/01/23 04:18:06;;;;;;;10.50;6.40;;;;;;;1.69;76.51;102905.89;107547;1253;97997;-60
2023/01/23 04:20:34;;;;;;;9.10;6.10;;;;;;;1.65;76.62;102909.84;107583;1254;112631;-60
2023/01/23 04:23:03;;;;;;;7.60;5.80;;;;;;;1.65;76.71;102914.63;107610;1253;109696;-63
2023/01/23 04:25:31;;;;;;;8.30;5.40;;;;;;;1.63;76.25;102918.38;107670;1253;106916;-60
2023/01/23 04:28:00;;;;;;;9.50;5.90;;;;;;;1.62;76.34;102918.04;107447;1253;97883;-61
2023/01/23 04:30:28;;;;;;;7.90;5.80;;;;;;;1.62;76.28;102918.23;107676;1253;97901;-60
2023/01/23 04:32:59;;;;;;;9.00;6.70;;;;;;;1.61;76.44;102914.33;107700;1254;112211;-60
2023/01/23 04:35:28;;;;;;;11.10;7.60;;;;;;;1.59;76.41;102919.31;107690;1254;109184;-60
2023/01/23 04:37:56;;;;;;;10.20;7.60;;;;;;;1.58;76.06;102918.09;107450;1254;108737;-60
2023/01/23 04:40:25;;;;;;;11.30;7.40;;;;;;;1.55;76.05;102919.73;107595;1254;97828;-60
2023/01/23 04:42:57;;;;;;;13.30;7.40;;;;;;;1.53;76.25;102917.64;107620;1253;98479;-61
2023/01/23 04:45:42;;;;;;;10.30;7.20;;;;;;;1.54;76.50;102916.56;107646;1254;112319;-61
2023/01/23 04:48:12;;;;;;;8.50;6.10;;;;;;;1.54;76.56;102917.09;107598;1253;110030;-62
2023/01/23 04:50:40;;;;;;;9.20;5.80;;;;;;;1.50;76.64;102921.94;107449;1254;107377;-61
2023/01/23 04:53:09;;;;;;;9.30;6.30;;;;;;;1.45;76.61;102921.84;107415;1254;98456;-59
2023/01/23 04:55:38;;;;;;;8.20;5.50;;;;;;;1.47;77.09;102920.20;107651;1254;98364;-60
2023/01/23 04:58:10;;;;;;;6.00;4.50;;;;;;;1.53;77.26;102918.70;107579;1253;111711;-60
2023/01/23 05:00:38;;;;;;;7.10;4.90;;;;;;;1.53;76.77;102922.95;107610;1252;110849;-60
2023/01/23 05:03:07;;;;;;;6.80;4.60;;;;;;;1.49;76.60;102928.48;107599;1254;108102;-61
2023/01/23 05:05:38;;;;;;;8.20;5.50;;;;;;;1.50;76.35;102937.31;107481;1254;97934;-61
2023/01/23 05:08:07;;;;;;;6.80;5.10;;;;;;;1.46;76.37;102940.58;107554;1256;98469;-60
2023/01/23 05:10:36;;;;;;;7.40;5.10;;;;;;;1.43;76.49;102948.05;107439;1254;113048;-61
2023/01/23 05:13:08;;;;;;;6.70;5.10;;;;;;;1.40;76.33;102948.63;107623;1254;110676;-61
2023/01/23 05:15:37;;;;;;;7.60;5.50;;;;;;;1.34;76.49;102953.11;107600;1256;106346;-62
2023/01/23 05:18:05;;;;;;;9.90;5.40;;;;;;;1.35;76.38;102952.05;107434;1254;98459;-62
2023/01/23 05:20:36;;;;;;;7.70;6.00;;;;;;;1.32;76.11;102959.16;107589;1252;99552;-60
2023/01/23 05:23:04;;;;;;;11.60;6.60;;;;;;;1.30;76.50;102969.98;107596;1254;112137;-60
2023/01/23 05:25:41;;;;;;;9.40;7.20;;;;;;;1.33;76.61;102969.94;107659;1254;109283;-60
2023/01/23 05:28:10;;;;;;;13.20;8.00;;;;;;;1.33;76.58;102970.64;107591;1254;107653;-59
2023/01/23 05:30:44;;;;;;;26.40;16.80;;;;;;;1.35;76.64;102973.25;107638;1253;97820;-60
2023/01/23 05:33:21;;;;;;;13.50;8.90;;;;;;;1.37;76.57;102973.05;107680;1252;98363;-60
2023/01/23 05:35:50;;;;;;;7.70;5.70;;;;;;;1.39;76.11;102973.55;107659;1253;111812;-60
2023/01/23 05:38:19;;;;;;;8.60;6.50;;;;;;;1.39;76.11;102974.44;107600;1254;110157;-61
2023/01/23 05:40:47;;;;;;;9.20;5.50;;;;;;;1.35;75.78;102976.98;107471;1254;109428;-60
2023/01/23 05:43:16;;;;;;;11.60;7.40;;;;;;;1.34;75.49;102975.57;107608;1252;97975;-60
2023/01/23 05:46:04;;;;;;;11.20;7.60;;;;;;;1.29;75.31;102977.95;107648;1253;97844;-61
2023/01/23 05:48:52;;;;;;;11.20;8.40;;;;;;;1.27;75.63;102982.21;107636;1252;112032;-59
2023/01/23 05:51:22;;;;;;;10.90;8.20;;;;;;;1.24;75.66;102983.84;107651;1252;109033;-61
2023/01/23 05:53:51;;;;;;;11.50;7.40;;;;;;;1.24;75.85;102984.20;107471;1252;108069;-60
2023/01/23 05:56:19;;;;;;;13.60;8.20;;;;;;;1.24;76.14;102987.02;107611;1254;98489;-60
2023/01/23 05:59:08;;;;;;;8.00;6.20;;;;;;;1.29;76.11;102996.15;107605;1252;98389;-60
2023/01/23 06:01:43;;;;;;;8.90;7.00;;;;;;;1.37;76.15;102999.92;107525;1253;111346;-59
2023/01/23 06:04:30;;;;;;;11.60;7.10;;;;;;;1.38;75.80;103001.52;107652;1254;109285;-60
2023/01/23 06:07:16;;;;;;;9.30;5.40;;;;;;;1.39;75.94;103003.63;107632;1254;108348;-60
2023/01/23 06:09:45;;;;;;;7.50;5.70;;;;;;;1.39;76.18;103006.11;107651;1255;97835;-59
2023/01/23 06:12:14;;;;;;;9.80;6.30;;;;;;;1.40;76.44;103011.03;107657;1254;98372;-60
2023/01/23 06:14:43;;;;;;;11.80;5.10;;;;;;;1.45;76.55;103016.98;107494;1253;112232;-61
2023/01/23 06:17:12;;;;;;;11.30;5.40;;;;;;;1.46;76.63;103015.55;107654;1254;110078;-61
2023/01/23 06:19:41;;;;;;;7.50;5.80;;;;;;;1.46;76.41;103017.85;107461;1257;105942;-59
2023/01/23 06:22:10;;;;;;;5.90;4.40;;;;;;;1.45;76.21;103016.63;107587;1254;97922;-60
2023/01/23 06:24:56;;;;;;;7.30;5.40;;;;;;;1.47;76.54;103017.82;107612;1253;97706;-60
2023/01/23 06:27:24;;;;;;;27.20;5.50;;;;;;;1.55;76.72;103020.72;107513;1254;112047;-60
2023/01/23 06:29:53;;;;;;;7.90;5.00;;;;;;;1.61;76.24;103025.95;107601;1254;110819;-61
2023/01/23 06:32:22;;;;;;;5.70;4.60;;;;;;;1.58;75.78;103028.80;107511;1252;107695;-60
2023/01/23 06:34:51;;;;;;;7.70;5.40;;;;;;;1.60;76.22;103031.79;107626;1253;98306;-60
2023/01/23 06:37:19;;;;;;;9.10;4.90;;;;;;;1.66;76.43;103036.84;107641;1254;97816;-60
2023/01/23 06:39:48;;;;;;;7.40;5.60;;;;;;;1.74;76.58;103042.02;107563;1254;112195;-61
2023/01/23 06:42:16;;;;;;;11.40;5.70;;;;;;;1.80;76.22;103042.65;107605;1253;109930;-61
2023/01/23 06:44:48;;;;;;;15.90;7.50;;;;;;;1.83;75.90;103042.96;107644;1254;108183;-61
2023/01/23 06:47:17;;;;;;;21.10;8.20;;;;;;;1.84;76.29;103042.41;107673;1253;97934;-60
2023/01/23 06:49:51;;;;;;;15.90;6.80;;;;;;;1.89;76.54;103042.14;107519;1253;97762;-60
2023/01/23 06:52:19;;;;;;;9.90;7.10;;;;;;;1.91;75.76;103044.58;107629;1253;111895;-60
2023/01/23 06:54:48;;;;;;;15.80;5.90;;;;;;;1.86;75.36;103043.96;107516;1254;109268;-61
2023/01/23 06:57:17;;;;;;;16.00;6.50;;;;;;;1.83;75.33;103049.33;107654;1254;108476;-60
2023/01/23 06:59:46;;;;;;;18.50;8.40;;;;;;;1.76;74.78;103048.54;107496;1254;97970;-60
2023/01/23 07:02:15;;;;;;;24.80;9.40;;;;;;;1.70;75.24;103056.58;107666;1254;97959;-59
2023/01/23 07:04:51;;;;;;;20.60;10.30;;;;;;;1.68;75.67;103058.39;107643;1253;110480;-59
2023/01/23 07:07:20;;;;;;;23.80;10.20;;;;;;;1.70;75.64;103053.40;107627;1253;110507;-59
2023/01/23 07:09:49;;;;;;;20.00;10.70;;;;;;;1.70;75.46;103053.94;107610;1253;108117;-62
2023/01/23 07:12:23;;;;;;;19.90;10.40;;;;;;;1.64;75.42;103052.96;107620;1253;97848;-61
2023/01/23 07:14:52;;;;;;;18.50;9.40;;;;;;;1.60;75.68;103052.66;107618;1253;98400;-60
2023/01/23 07:17:29;;;;;;;18.70;9.40;;;;;;;1.60;75.96;103057.45;107620;1254;112296;-61
2023/01/23 07:19:57;;;;;;;15.30;8.20;;;;;;;1.62;75.98;103058.48;107613;1254;110148;-61
2023/01/23 07:22:25;;;;;;;15.80;8.10;;;;;;;1.65;76.16;103061.09;107428;1252;107820;-61
2023/01/23 07:24:54;;;;;;;16.50;8.90;;;;;;;1.65;75.90;103063.57;107446;1252;97848;-58
2023/01/23 07:27:23;;;;;;;14.00;8.00;;;;;;;1.66;75.97;103064.98;107634;1253;97825;-60
2023/01/23 07:29:51;;;;;;;14.60;7.50;;;;;;;1.59;75.72;103071.77;107639;1253;111257;-60
2023/01/23 07:32:20;;;;;;;10.60;7.00;;;;;;;1.56;76.05;103072.88;107600;1252;109958;-60
2023/01/23 07:34:48;;;;;;;18.90;7.80;;;;;;;1.58;76.07;103071.98;107605;1255;107939;-60
2023/01/23 07:37:16;;;;;;;10.00;6.60;;;;;;;1.60;76.10;103069.66;107602;1253;97842;-60
2023/01/23 07:39:45;;;;;;;16.30;7.60;;;;;;;1.61;75.41;103068.92;107609;1253;97740;-60
2023/01/23 07:42:13;;;;;;;18.10;10.30;;;;;;;1.53;75.60;103066.73;107589;1254;111239;-60
2023/01/23 07:44:42;;;;;;;17.00;9.50;;;;;;;1.49;75.77;103071.40;107596;1254;110899;-60
2023/01/23 07:47:10;;;;;;;16.20;8.70;;;;;;;1.46;76.00;103075.67;107595;1254;107687;-59
2023/01/23 07:49:39;;;;;;;16.10;8.20;;;;;;;1.47;76.00;103077.62;107431;1254;97963;-60
2023/01/23 07:52:07;;;;;;;15.00;8.20;;;;;;;1.45;75.89;103082.05;107571;1254;97928;-59
2023/01/23 07:54:36;;;;;;;14.60;8.90;;;;;;;1.45;75.98;103090.52;107568;1254;112129;-60
2023/01/23 07:57:04;;;;;;;15.80;8.10;;;;;;;1.51;76.31;103091.88;107587;1254;111158;-61
2023/01/23 07:59:33;;;;;;;17.20;8.30;;;;;;;1.57;76.14;103089.85;107593;1253;109077;-60
2023/01/23 08:02:01;;;;;;;15.50;7.50;;;;;;;1.65;76.33;103093.63;107577;1253;98493;-59
2023/01/23 08:04:30;;;;;;;17.30;7.00;;;;;;;1.71;76.00;103089.13;107575;1253;98388;-62
2023/01/23 08:06:58;;;;;;;21.70;8.80;;;;;;;1.72;75.70;103093.54;107594;1254;110916;-61
2023/01/23 08:09:27;;;;;;;18.10;9.20;;;;;;;1.73;75.25;103095.83;107606;1254;109908;-60
2023/01/23 08:11:55;;;;;;;15.30;8.30;;;;;;;1.64;74.90;103096.13;107614;1252;106923;-60
2023/01/23 08:14:23;;;;;;;15.30;8.90;;;;;;;1.54;75.27;103098.73;107607;1254;97839;-61
2023/01/23 08:16:52;;;;;;;11.60;7.20;;;;;;;1.46;75.69;103101.48;107597;1253;98366;-59
2023/01/23 08:19:24;;;;;;;13.60;8.40;;;;;;;1.39;75.99;103102.64;107649;1256;111329;-62
2023/01/23 08:21:52;;;;;;;15.50;9.10;;;;;;;1.33;76.28;103106.06;107574;1253;110125;-59
2023/01/23 08:24:20;;;;;;;16.70;7.60;;;;;;;1.30;76.55;103109.83;107639;1253;108213;-59
2023/01/23 08:26:49;;;;;;;17.50;7.50;;;;;;;1.28;76.71;103116.55;107615;1254;97829;-61
2023/01/23 08:29:18;;;;;;;15.40;8.70;;;;;;;1.28;77.03;103124.52;107738;1251;98453;-60
2023/01/23 08:31:47;;;;;;;16.10;7.90;;;;;;;1.28;76.63;103119.92;107630;1253;110563;-61
2023/01/23 08:34:15;;;;;;;13.70;8.60;;;;;;;1.25;76.64;103126.50;107625;1254;109889;-61
2023/01/23 08:36:44;;;;;;;13.60;8.30;;;;;;;1.25;76.78;103132.15;107606;1253;107921;-60
2023/01/23 08:39:12;;;;;;;15.80;8.60;;;;;;;1.32;76.89;103129.77;107614;1254;97867;-61
2023/01/23 08:41:41;;;;;;;19.20;7.80;;;;;;;1.36;76.50;103128.48;107578;1252;97707;-61
2023/01/23 08:44:09;;;;;;;14.90;8.40;;;;;;;1.36;76.34;103127.25;107582;1253;112272;-60
2023/01/23 08:46:38;;;;;;;13.60;7.90;;;;;;;1.34;76.07;103131.52;107423;1254;108819;-61
2023/01/23 08:49:06;;;;;;;21.30;7.60;;;;;;;1.31;75.87;103130.84;107553;1254;108689;-60
2023/01/23 08:51:36;;;;;;;13.50;7.60;;;;;;;1.28;75.85;103127.70;107545;1253;97844;-61
2023/01/23 08:54:05;;;;;;;12.70;6.80;;;;;;;1.26;75.91;103136.57;107585;1256;98164;-61
2023/01/23 08:56:33;;;;;;;15.50;7.60;;;;;;;1.23;75.79;103133.59;107586;1253;111307;-61
2023/01/23 08:59:02;;;;;;;14.50;7.60;;;;;;;1.22;75.88;103134.84;107624;1253;109248;-63
2023/01/23 09:01:31;;;;;;;23.00;9.50;;;;;;;1.19;75.47;103134.34;107555;1254;108889;-62
2023/01/23 09:03:59;;;;;;;13.90;7.90;;;;;;;1.13;75.34;103137.75;107608;1253;97828;-60
2023/01/23 09:06:28;;;;;;;16.80;7.60;;;;;;;1.10;75.57;103137.79;107557;1254;98385;-60
2023/01/23 09:08:56;;;;;;;16.80;8.40;;;;;;;1.08;75.45;103137.48;107582;1254;111729;-61
2023/01/23 09:11:25;;;;;;;16.60;10.00;;;;;;;1.08;75.57;103135.16;107590;1254;109227;-61
2023/01/23 09:13:53;;;;;;;19.60;9.60;;;;;;;1.12;75.73;103136.88;107575;1254;108310;-60
2023/01/23 09:16:21;;;;;;;18.00;9.50;;;;;;;1.15;75.86;103133.67;107545;1256;97970;-61
2023/01/23 09:18:49;;;;;;;24.20;10.30;;;;;;;1.17;76.01;103134.70;107529;1256;97972;-60
2023/01/23 09:21:18;;;;;;;18.90;9.90;;;;;;;1.22;76.18;103136.96;107543;1254;112210;-61
2023/01/23 09:23:46;;;;;;;23.90;11.10;;;;;;;1.28;76.15;103138.65;107562;1254;109757;-60
2023/01/23 09:26:15;;;;;;;23.60;10.50;;;;;;;1.30;75.43;103138.64;107574;1254;108159;-59
2023/01/23 09:28:46;;;;;;;19.00;9.50;;;;;;;1.23;75.03;103139.25;107557;1252;97944;-62
2023/01/23 09:31:15;;;;;;;21.40;10.50;;;;;;;1.18;75.26;103137.88;107581;1253;97725;-61
2023/01/23 09:33:43;;;;;;;21.90;10.10;;;;;;;1.14;75.13;103143.41;107600;1252;111833;-61
2023/01/23 09:36:12;;;;;;;18.30;10.30;;;;;;;1.05;75.58;103139.44;107565;1253;109869;-61
2023/01/23 09:38:40;;;;;;;23.10;12.40;;;;;;;1.05;75.79;103142.45;107537;1254;108803;-60
2023/01/23 09:41:18;;;;;;;25.60;13.00;;;;;;;1.03;75.76;103136.45;107596;1252;98332;-62
2023/01/23 09:43:57;;;;;;;22.00;11.30;;;;;;;1.02;75.96;103140.54;107620;1256;98388;-62
2023/01/23 09:46:36;;;;;;;18.60;9.90;;;;;;;1.01;76.05;103136.83;107548;1253;111348;-61
2023/01/23 09:49:27;;;;;;;31.80;10.80;;;;;;;1.05;76.31;103132.36;107530;1254;109312;-62
2023/01/23 09:52:19;;;;;;;21.40;10.30;;;;;;;1.12;76.30;103128.23;107592;1252;108772;-59
2023/01/23 09:55:17;;;;;;;21.20;10.30;;;;;;;1.20;76.29;103125.84;107606;1254;97903;-60
2023/01/23 09:57:53;;;;;;;23.50;8.80;;;;;;;1.23;76.12;103124.39;107512;1252;98445;-59
2023/01/23 10:00:28;;;;;;;19.50;9.50;;;;;;;1.27;76.14;103123.64;107596;1253;112086;-61
2023/01/23 10:03:03;;;;;;;22.60;9.60;;;;;;;1.28;75.95;103115.86;107580;1254;110527;-61
2023/01/23 10:05:54;;;;;;;18.70;8.80;;;;;;;1.30;75.92;103111.41;107570;1252;109443;-61
2023/01/23 10:08:50;;;;;;;17.90;9.40;;;;;;;1.30;75.65;103113.70;107279;1254;98467;-61
2023/01/23 10:11:48;;;;;;;18.50;9.50;;;;;;;1.32;76.09;103109.98;107603;1254;98441;-61
2023/01/23 10:14:35;;;;;;;13.90;8.10;;;;;;;1.41;76.33;103105.80;107534;1254;113427;-62
2023/01/23 10:17:14;;;;;;;15.00;8.20;;;;;;;1.48;75.85;103100.40;107600;1252;110007;-61
2023/01/23 10:19:51;;;;;;;11.80;7.50;;;;;;;1.47;75.56;103094.05;107677;1253;108833;-59
2023/01/23 10:22:57;;;;;;;16.80;8.80;;;;;;;1.44;75.09;103095.84;107595;1254;97825;-61
2023/01/23 10:25:31;;;;;;;21.50;8.50;;;;;;;1.37;74.98;103094.16;107676;1254;97797;-61
2023/01/23 10:28:19;;;;;;;23.30;9.00;;;;;;;1.32;75.09;103091.41;107634;1254;111772;-61
2023/01/23 10:30:54;;;;;;;16.30;9.60;;;;;;;1.32;75.26;103085.73;107639;1254;109550;-61
2023/01/23 10:33:35;;;;;;;26.80;10.40;;;;;;;1.31;75.34;103083.27;107521;1256;108840;-60
2023/01/23 10:36:16;;;;;;;24.70;11.80;;;;;;;1.24;75.39;103078.59;107541;1256;97950;-60
2023/01/23 10:39:09;;;;;;;21.70;9.50;;;;;;;1.26;76.01;103075.77;107554;1254;97841;-61
2023/01/23 10:41:38;;;;;;;16.30;10.20;;;;;;;1.29;75.82;103075.02;107600;1254;111468;-60
2023/01/23 10:44:18;;;;;;;28.40;10.60;;;;;;;1.31;75.85;103077.10;106856;1256;976466;-60
2023/01/23 10:46:53;;;;;;;18.70;8.80;;;;;;;1.33;75.88;103078.31;107546;1254;108564;-61
2023/01/23 10:49:37;;;;;;;21.40;8.90;;;;;;;1.38;75.94;103075.60;107562;1252;97867;-59
2023/01/23 10:52:28;;;;;;;16.80;9.00;;;;;;;1.34;75.40;103071.76;107653;1254;98561;-62
2023/01/23 10:54:57;;;;;;;15.60;9.00;;;;;;;1.31;75.84;103076.92;107581;1254;111463;-61
2023/01/23 10:57:30;;;;;;;14.60;8.10;;;;;;;1.34;76.01;103075.81;107584;1254;109220;-61
2023/01/23 11:00:07;;;;;;;18.90;9.60;;;;;;;1.37;76.18;103069.77;107587;1254;107093;-61
2023/01/23 11:02:39;;;;;;;15.10;7.70;;;;;;;1.35;76.30;103064.32;107635;1254;97775;-59
2023/01/23 11:05:34;;;;;;;17.70;8.50;;;;;;;1.34;76.25;103055.14;107585;1254;97732;-61
2023/01/23 11:08:50;;;;;;;18.70;9.30;;;;;;;1.28;76.16;103050.96;107540;1254;111812;-59
2023/01/23 11:11:24;;;;;;;22.50;8.40;;;;;;;1.29;76.32;103050.78;107575;1253;110143;-61
2023/01/23 11:14:04;;;;;;;;;;;;;;;1.35;76.41;103049.83;107622;1254;108272;-62
2023/01/23 11:16:33;;;;;;;20.90;8.30;;;;;;;1.33;76.06;103041.19;107565;1254;97835;-61
2023/01/23 11:19:07;;;;;;;17.40;8.80;;;;;;;1.34;76.44;103039.22;107584;1253;98039;-61
2023/01/23 11:21:49;;;;;;;23.40;9.30;;;;;;;1.40;76.66;103038.44;107542;1253;113023;-62
2023/01/23 11:24:34;;;;;;;14.80;6.90;;;;;;;1.48;76.80;103035.14;107473;1258;109231;-62
2023/01/23 11:27:14;;;;;;;16.40;8.20;;;;;;;1.56;76.60;103035.38;107588;1253;107996;-62
2023/01/23 11:30:01;;;;;;;14.80;8.30;;;;;;;1.54;76.03;103030.81;107665;1256;97818;-61
2023/01/23 11:32:34;;;;;;;14.20;8.10;;;;;;;1.53;76.25;103028.16;107581;1252;98688;-60
2023/01/23 11:35:13;;;;;;;14.40;8.10;;;;;;;1.54;75.83;103023.91;107545;1254;109796;-61
2023/01/23 11:37:42;;;;;;;23.10;8.70;;;;;;;1.47;75.80;103024.36;107592;1253;109381;-60
2023/01/23 11:40:14;;;;;;;16.80;8.60;;;;;;;1.40;75.88;103029.07;107608;1252;108509;-61
2023/01/23 11:42:44;;;;;;;14.80;8.30;;;;;;;1.37;76.37;103029.81;107627;1254;97932;-60
2023/01/23 11:45:18;;;;;;;13.70;7.30;;;;;;;1.32;76.28;103033.23;107600;1254;98386;-60
2023/01/23 11:48:07;;;;;;;13.80;7.80;;;;;;;1.32;76.58;103027.05;107642;1253;111000;-61